Time,TemperatureF,DewpointF,PressureIn,WindDirection,WindDirectionDegrees,WindSpeedMPH,WindSpeedGustMPH,Humidity,HourlyPrecipIn,Conditions,Clouds,dailyrainin,SoftwareType,DateUTC
2013-08-21 00:00:00,67.2,67.2,30.22,NNW,338,0.0,0.0,100,0.00,,---,0.00,VWS V14.00,2013-08-21 04:00:00,
2013-08-21 00:01:00,67.2,67.2,30.22,NNW,338,0.0,0.0,100,0.00,,---,0.00,VWS V14.00,2013-08-21 04:01:00,
2013-08-21 00:06:00,67.2,67.2,30.23,NNW,338,0.0,0.0,100,0.00,,---,0.00,VWS V14.00,2013-08-21 04:06:00,
2013-08-21 00:11:00,67.1,67.1,30.23,NNW,338,0.0,0.0,100,0.00,,---,0.00,VWS V14.00,2013-08-21 04:11:00,
2013-08-21 00:16:00,67.1,67.1,30.23,NNW,338,0.0,0.0,100,0.00,,---,0.00,VWS V14.00,2013-08-21 04:16:00,
2013-08-21 00:21:00,66.9,66.9,30.23,NNW,338,0.0,0.0,100,0.00,,---,0.00,VWS V14.00,2013-08-21 04:21:00,
2013-08-21 00:26:00,66.9,66.9,30.23,NNW,338,0.0,0.0,100,0.00,,---,0.00,VWS V14.00,2013-08-21 04:26:00,
2013-08-21 00:31:00,66.7,66.7,30.23,NNW,338,0.0,0.0,100,0.00,,---,0.00,VWS V14.00,2013-08-21 04:31:00,
2013-08-21 00:36:00,66.5,66.5,30.23,NNW,338,0.0,0.0,100,0.00,,---,0.00,VWS V14.00,2013-08-21 04:36:00,
2013-08-21 00:41:00,66.5,66.5,30.23,NNW,338,0.0,0.0,100,0.00,,---,0.00,VWS V14.00,2013-08-21 04:41:00,
2013-08-21 00:46:00,66.3,66.3,30.23,NNW,338,0.0,0.0,100,0.00,,---,0.00,VWS V14.00,2013-08-21 04:46:00,
2013-08-21 00:51:00,66.3,66.3,30.23,NNW,338,0.0,0.0,100,0.00,,---,0.00,VWS V14.00,2013-08-21 04:51:00,
2013-08-21 00:56:00,66.2,66.2,30.23,NNW,338,0.0,0.0,100,0.00,,---,0.00,VWS V14.00,2013-08-21 04:56:00,
2013-08-21 01:01:00,66.2,66.2,30.23,NNW,338,0.0,0.0,100,0.00,,---,0.00,VWS V14.00,2013-08-21 05:01:00,
2013-08-21 01:06:00,66.0,66.0,30.23,NNW,338,0.0,0.0,100,0.00,,---,0.00,VWS V14.00,2013-08-21 05:06:00,
2013-08-21 01:11:00,66.0,66.0,30.23,NNW,338,0.0,0.0,100,0.00,,---,0.00,VWS V14.00,2013-08-21 05:11:00,
2013-08-21 01:16:00,66.0,66.0,30.22,NNW,338,0.0,0.0,100,0.00,,---,0.00,VWS V14.00,2013-08-21 05:16:00,
2013-08-21 01:21:00,66.0,66.0,30.22,NNW,338,0.0,0.0,100,0.00,,---,0.00,VWS V14.00,2013-08-21 05:21:00,
2013-08-21 01:26:00,66.0,66.0,30.22,NNW,338,0.0,0.0,100,0.00,,---,0.00,VWS V14.00,2013-08-21 05:26:00,
2013-08-21 01:31:00,66.0,66.0,30.22,NNW,338,0.0,0.0,100,0.00,,---,0.00,VWS V14.00,2013-08-21 05:31:00,
2013-08-21 01:36:00,66.0,66.0,30.22,NNW,338,0.0,0.0,100,0.00,,---,0.00,VWS V14.00,2013-08-21 05:36:00,
2013-08-21 01:41:00,66.0,66.0,30.21,NNW,338,0.0,0.0,100,0.00,,---,0.00,VWS V14.00,2013-08-21 05:41:00,
2013-08-21 01:46:00,66.0,66.0,30.22,NNW,338,0.0,0.0,100,0.00,,---,0.00,VWS V14.00,2013-08-21 05:46:00,
2013-08-21 01:51:00,66.0,66.0,30.21,NNW,338,0.0,0.0,100,0.00,,---,0.00,VWS V14.00,2013-08-21 05:51:00,
2013-08-21 01:57:00,65.8,65.8,30.21,NNW,338,0.0,0.0,100,0.00,,---,0.00,VWS V14.00,2013-08-21 05:57:00,
2013-08-21 02:02:00,65.6,65.6,30.21,NNW,338,0.0,0.0,100,0.00,,---,0.00,VWS V14.00,2013-08-21 06:02:00,
2013-08-21 02:07:00,65.4,65.4,30.21,NNW,338,0.0,0.0,100,0.00,,---,0.00,VWS V14.00,2013-08-21 06:07:00,
2013-08-21 02:12:00,65.3,65.3,30.21,NNW,338,0.0,0.0,100,0.00,,---,0.00,VWS V14.00,2013-08-21 06:12:00,
2013-08-21 02:17:00,65.3,65.3,30.21,NNW,338,0.0,0.0,100,0.00,,---,0.00,VWS V14.00,2013-08-21 06:17:00,
2013-08-21 02:22:00,65.1,65.1,30.21,NNW,338,0.0,0.0,100,0.00,,---,0.00,VWS V14.00,2013-08-21 06:22:00,
2013-08-21 02:27:00,65.1,65.1,30.21,NNW,338,0.0,0.0,100,0.00,,---,0.00,VWS V14.00,2013-08-21 06:27:00,
2013-08-21 02:32:00,65.1,65.1,30.21,NNW,338,0.0,0.0,100,0.00,,---,0.00,VWS V14.00,2013-08-21 06:32:00,
2013-08-21 02:37:00,64.9,64.9,30.21,NNW,338,0.0,0.0,100,0.00,,---,0.00,VWS V14.00,2013-08-21 06:37:00,
2013-08-21 02:42:00,64.9,64.9,30.21,NNW,338,0.0,0.0,100,0.00,,---,0.00,VWS V14.00,2013-08-21 06:42:00,
2013-08-21 02:47:00,64.9,64.9,30.21,NNW,338,0.0,0.0,100,0.00,,---,0.00,VWS V14.00,2013-08-21 06:47:00,
2013-08-21 02:52:00,64.9,64.9,30.21,NNW,338,0.0,0.0,100,0.00,,---,0.00,VWS V14.00,2013-08-21 06:52:00,
2013-08-21 02:57:00,64.9,64.9,30.21,NNW,338,0.0,0.0,100,0.00,,---,0.00,VWS V14.00,2013-08-21 06:57:00,
2013-08-21 03:02:00,64.9,64.9,30.21,NNW,338,0.0,0.0,100,0.00,,---,0.00,VWS V14.00,2013-08-21 07:02:00,
2013-08-21 03:07:00,64.9,64.9,30.20,NNW,338,0.0,0.0,100,0.00,,---,0.00,VWS V14.00,2013-08-21 07:07:00,
2013-08-21 03:12:00,64.9,64.9,30.20,NNW,338,0.0,0.0,100,0.00,,---,0.00,VWS V14.00,2013-08-21 07:12:00,
2013-08-21 03:17:00,65.1,65.1,30.20,NNW,338,0.0,0.0,100,0.00,,---,0.00,VWS V14.00,2013-08-21 07:17:00,
2013-08-21 03:22:00,65.1,65.1,30.20,NNW,338,0.0,0.0,100,0.00,,---,0.00,VWS V14.00,2013-08-21 07:22:00,
2013-08-21 03:27:00,65.1,65.1,30.20,NNW,338,0.0,0.0,100,0.00,,---,0.00,VWS V14.00,2013-08-21 07:27:00,
2013-08-21 03:32:00,65.1,65.1,30.20,NNW,338,0.0,0.0,100,0.00,,---,0.00,VWS V14.00,2013-08-21 07:32:00,
2013-08-21 03:37:00,65.3,65.3,30.19,NNW,338,0.0,0.0,100,0.00,,---,0.00,VWS V14.00,2013-08-21 07:37:00,
2013-08-21 03:42:00,65.3,65.3,30.19,NNW,338,0.0,0.0,100,0.00,,---,0.00,VWS V14.00,2013-08-21 07:42:00,
2013-08-21 03:47:00,65.4,65.4,30.19,NNW,338,0.0,0.0,100,0.00,,---,0.00,VWS V14.00,2013-08-21 07:47:00,
2013-08-21 03:52:00,65.4,65.4,30.19,NNW,338,0.0,0.0,100,0.00,,---,0.00,VWS V14.00,2013-08-21 07:52:00,
2013-08-21 03:57:00,65.4,65.4,30.19,NNW,338,0.0,0.0,100,0.00,,---,0.00,VWS V14.00,2013-08-21 07:57:00,
2013-08-21 04:03:00,65.4,65.4,30.19,NNW,338,0.0,0.0,100,0.00,,---,0.00,VWS V14.00,2013-08-21 08:03:00,
2013-08-21 04:08:00,65.6,65.6,30.19,NNW,338,0.0,0.0,100,0.00,,---,0.00,VWS V14.00,2013-08-21 08:08:00,
2013-08-21 04:13:00,65.6,65.6,30.20,NNW,338,0.0,0.0,100,0.00,,---,0.00,VWS V14.00,2013-08-21 08:13:00,
2013-08-21 04:18:00,65.8,65.8,30.19,NNW,338,0.0,0.0,100,0.00,,---,0.00,VWS V14.00,2013-08-21 08:18:00,
2013-08-21 04:23:00,65.8,65.8,30.19,NNW,338,0.0,0.0,100,0.00,,---,0.00,VWS V14.00,2013-08-21 08:23:00,
2013-08-21 04:28:00,65.8,65.8,30.19,NNW,338,0.0,0.0,100,0.00,,---,0.00,VWS V14.00,2013-08-21 08:28:00,
2013-08-21 04:33:00,65.8,65.8,30.19,NNW,338,0.0,0.0,100,0.00,,---,0.00,VWS V14.00,2013-08-21 08:33:00,
2013-08-21 04:38:00,65.8,65.8,30.19,NNW,338,0.0,0.0,100,0.00,,---,0.00,VWS V14.00,2013-08-21 08:38:00,
2013-08-21 04:43:00,66.0,66.0,30.19,NNW,338,0.0,0.0,100,0.00,,---,0.00,VWS V14.00,2013-08-21 08:43:00,
2013-08-21 04:48:00,66.0,66.0,30.19,NNW,338,0.0,0.0,100,0.00,,---,0.00,VWS V14.00,2013-08-21 08:48:00,
2013-08-21 04:53:00,66.0,66.0,30.19,NNW,338,0.0,0.0,100,0.00,,---,0.00,VWS V14.00,2013-08-21 08:53:00,
2013-08-21 04:58:00,66.0,66.0,30.19,NNW,338,0.0,0.0,100,0.00,,---,0.00,VWS V14.00,2013-08-21 08:58:00,
2013-08-21 05:03:00,66.0,66.0,30.20,NNW,338,0.0,0.0,100,0.00,,---,0.00,VWS V14.00,2013-08-21 09:03:00,
2013-08-21 05:08:00,66.0,66.0,30.20,NNW,338,0.0,0.0,100,0.00,,---,0.00,VWS V14.00,2013-08-21 09:08:00,
2013-08-21 05:13:00,66.0,66.0,30.21,NNW,338,0.0,0.0,100,0.00,,---,0.00,VWS V14.00,2013-08-21 09:13:00,
2013-08-21 05:18:00,65.8,65.8,30.21,NNW,338,0.0,0.0,100,0.00,,---,0.00,VWS V14.00,2013-08-21 09:18:00,
2013-08-21 05:23:00,65.8,65.8,30.21,NNW,338,0.0,0.0,100,0.00,,---,0.00,VWS V14.00,2013-08-21 09:23:00,
2013-08-21 05:28:00,65.8,65.8,30.21,NNW,338,0.0,0.0,100,0.00,,---,0.00,VWS V14.00,2013-08-21 09:28:00,
2013-08-21 05:33:00,65.8,65.8,30.21,NNW,338,0.0,0.0,100,0.00,,---,0.00,VWS V14.00,2013-08-21 09:33:00,
2013-08-21 05:38:00,65.8,65.8,30.21,NNW,338,0.0,0.0,100,0.00,,---,0.00,VWS V14.00,2013-08-21 09:38:00,
2013-08-21 05:43:00,65.8,65.8,30.21,NNW,338,0.0,0.0,100,0.00,,---,0.00,VWS V14.00,2013-08-21 09:43:00,
2013-08-21 05:48:00,65.8,65.8,30.21,NNW,338,0.0,0.0,100,0.00,,---,0.00,VWS V14.00,2013-08-21 09:48:00,
2013-08-21 05:53:00,65.8,65.8,30.21,NNW,338,0.0,0.0,100,0.00,,---,0.00,VWS V14.00,2013-08-21 09:53:00,
2013-08-21 05:58:00,66.0,66.0,30.21,NNW,338,0.0,0.0,100,0.00,,---,0.00,VWS V14.00,2013-08-21 09:58:00,
2013-08-21 06:03:00,66.0,66.0,30.21,NNW,338,0.0,0.0,100,0.00,,---,0.00,VWS V14.00,2013-08-21 10:03:00,
2013-08-21 06:08:00,66.0,66.0,30.21,NNW,338,0.0,0.0,100,0.00,,---,0.00,VWS V14.00,2013-08-21 10:08:00,
2013-08-21 06:13:00,66.0,66.0,30.22,NNW,338,0.0,0.0,100,0.00,,---,0.00,VWS V14.00,2013-08-21 10:13:00,
2013-08-21 06:18:00,66.0,66.0,30.22,NNW,338,0.0,0.0,100,0.00,,---,0.00,VWS V14.00,2013-08-21 10:18:00,
2013-08-21 06:23:00,66.0,66.0,30.22,NNW,338,0.0,0.0,100,0.02,,---,0.02,VWS V14.00,2013-08-21 10:23:00,
2013-08-21 06:28:00,66.0,66.0,30.22,NNW,338,0.0,0.0,100,0.02,,---,0.02,VWS V14.00,2013-08-21 10:28:00,
2013-08-21 06:33:00,66.0,66.0,30.22,NNW,338,0.0,0.0,100,0.02,,---,0.02,VWS V14.00,2013-08-21 10:33:00,
2013-08-21 06:38:00,66.0,66.0,30.22,NNW,338,0.0,0.0,100,0.02,,---,0.02,VWS V14.00,2013-08-21 10:38:00,
2013-08-21 06:43:00,66.0,66.0,30.22,NNW,338,0.0,0.0,100,0.02,,---,0.02,VWS V14.00,2013-08-21 10:43:00,
2013-08-21 06:48:00,66.0,66.0,30.22,NNW,338,0.0,0.0,100,0.02,,---,0.02,VWS V14.00,2013-08-21 10:48:00,
2013-08-21 06:53:00,66.0,66.0,30.21,NNW,338,0.0,0.0,100,0.04,,---,0.04,VWS V14.00,2013-08-21 10:53:00,
2013-08-21 06:58:00,66.0,66.0,30.21,NNE,22,0.0,0.0,100,0.06,,---,0.06,VWS V14.00,2013-08-21 10:58:00,
2013-08-21 07:04:00,66.0,66.0,30.20,NNE,22,0.0,0.0,100,0.06,,---,0.06,VWS V14.00,2013-08-21 11:04:00,
2013-08-21 07:09:00,66.0,66.0,30.19,ENE,68,0.0,0.0,100,0.08,,---,0.08,VWS V14.00,2013-08-21 11:09:00,
2013-08-21 07:14:00,66.0,66.0,30.19,ENE,68,0.0,0.0,100,0.08,,---,0.08,VWS V14.00,2013-08-21 11:14:00,
2013-08-21 07:19:00,66.0,66.0,30.18,ENE,68,0.0,0.0,100,0.08,,---,0.08,VWS V14.00,2013-08-21 11:19:00,
2013-08-21 07:24:00,66.0,66.0,30.19,ENE,68,0.0,0.0,100,0.08,,---,0.08,VWS V14.00,2013-08-21 11:24:00,
2013-08-21 07:29:00,66.0,66.0,30.19,South,180,0.0,0.0,100,0.10,,---,0.10,VWS V14.00,2013-08-21 11:29:00,
2013-08-21 07:34:00,66.0,66.0,30.20,South,180,0.0,0.0,100,0.08,,---,0.10,VWS V14.00,2013-08-21 11:34:00,
2013-08-21 07:39:00,66.0,66.0,30.22,SW,225,0.0,0.0,100,0.08,,---,0.10,VWS V14.00,2013-08-21 11:39:00,
2013-08-21 07:44:00,66.0,66.0,30.22,East,90,0.0,0.0,100,0.08,,---,0.10,VWS V14.00,2013-08-21 11:44:00,
2013-08-21 07:49:00,66.2,66.2,30.23,WSW,248,0.0,0.0,100,0.08,,---,0.10,VWS V14.00,2013-08-21 11:49:00,
2013-08-21 07:54:00,66.3,66.3,30.23,WSW,248,0.0,0.0,100,0.06,,---,0.10,VWS V14.00,2013-08-21 11:54:00,
2013-08-21 07:59:00,66.3,66.3,30.24,WSW,248,0.0,0.0,100,0.06,,---,0.10,VWS V14.00,2013-08-21 11:59:00,
2013-08-21 08:04:00,66.5,66.5,30.23,WSW,248,0.0,0.0,100,0.04,,---,0.10,VWS V14.00,2013-08-21 12:04:00,
2013-08-21 08:09:00,66.5,66.5,30.23,WSW,248,0.0,0.0,100,0.04,,---,0.10,VWS V14.00,2013-08-21 12:09:00,
2013-08-21 08:14:00,66.7,66.7,30.23,WSW,248,0.0,0.0,100,0.02,,---,0.10,VWS V14.00,2013-08-21 12:14:00,
2013-08-21 08:19:00,66.7,66.7,30.23,WSW,248,0.0,0.0,100,0.02,,---,0.10,VWS V14.00,2013-08-21 12:19:00,
2013-08-21 08:24:00,66.9,66.9,30.24,WSW,248,0.0,0.0,100,0.02,,---,0.10,VWS V14.00,2013-08-21 12:24:00,
2013-08-21 08:29:00,67.1,67.1,30.24,WSW,248,0.0,0.0,100,0.02,,---,0.10,VWS V14.00,2013-08-21 12:29:00,
2013-08-21 08:34:00,67.6,67.6,30.24,WSW,248,0.0,0.0,100,0.00,,---,0.10,VWS V14.00,2013-08-21 12:34:00,
2013-08-21 08:39:00,67.6,67.6,30.24,WSW,248,0.0,0.0,100,0.00,,---,0.10,VWS V14.00,2013-08-21 12:39:00,
2013-08-21 08:44:00,67.8,67.8,30.24,WSW,248,0.0,0.0,100,0.00,,---,0.10,VWS V14.00,2013-08-21 12:44:00,
2013-08-21 08:49:00,68.1,68.1,30.24,WSW,248,0.0,0.0,100,0.00,,---,0.10,VWS V14.00,2013-08-21 12:49:00,
2013-08-21 08:54:00,68.3,68.3,30.24,WSW,248,0.0,0.0,100,0.00,,---,0.10,VWS V14.00,2013-08-21 12:54:00,
2013-08-21 08:59:00,68.5,68.5,30.24,WSW,248,0.0,0.0,100,0.00,,---,0.10,VWS V14.00,2013-08-21 12:59:00,
2013-08-21 09:04:00,68.7,68.7,30.24,WSW,248,0.0,0.0,100,0.00,,---,0.10,VWS V14.00,2013-08-21 13:04:00,
2013-08-21 09:09:00,68.7,68.7,30.24,NNE,22,0.0,0.0,100,0.00,,---,0.10,VWS V14.00,2013-08-21 13:09:00,
2013-08-21 09:14:00,68.7,68.7,30.24,NNE,22,0.0,0.0,100,0.00,,---,0.10,VWS V14.00,2013-08-21 13:14:00,
2013-08-21 09:19:00,69.0,69.0,30.24,NNE,22,0.0,0.0,100,0.00,,---,0.10,VWS V14.00,2013-08-21 13:19:00,
2013-08-21 09:24:00,69.4,69.4,30.24,NNE,22,0.0,0.0,100,0.00,,---,0.10,VWS V14.00,2013-08-21 13:24:00,
2013-08-21 09:29:00,69.6,69.6,30.25,NNE,22,0.0,0.0,100,0.00,,---,0.10,VWS V14.00,2013-08-21 13:29:00,
2013-08-21 09:34:00,70.1,70.1,30.25,NNE,22,0.0,0.0,100,0.00,,---,0.10,VWS V14.00,2013-08-21 13:34:00,
2013-08-21 09:39:00,70.3,70.3,30.25,NNE,22,0.0,0.0,100,0.00,,---,0.10,VWS V14.00,2013-08-21 13:39:00,
2013-08-21 09:44:00,70.5,70.5,30.25,NNE,22,0.0,0.0,100,0.00,,---,0.10,VWS V14.00,2013-08-21 13:44:00,
2013-08-21 09:50:00,70.8,70.8,30.25,NNE,22,0.0,0.0,100,0.00,,---,0.10,VWS V14.00,2013-08-21 13:50:00,
2013-08-21 09:55:00,70.8,70.8,30.25,NNE,22,0.0,0.0,100,0.00,,---,0.10,VWS V14.00,2013-08-21 13:55:00,
2013-08-21 10:00:00,70.8,70.8,30.25,North,0,0.0,0.0,100,0.00,,---,0.10,VWS V14.00,2013-08-21 14:00:00,
2013-08-21 10:05:00,71.2,71.2,30.25,North,0,0.0,0.0,100,0.00,,---,0.10,VWS V14.00,2013-08-21 14:05:00,
2013-08-21 10:10:00,71.2,71.2,30.25,North,0,0.0,0.0,100,0.00,,---,0.10,VWS V14.00,2013-08-21 14:10:00,
2013-08-21 10:15:00,71.4,71.4,30.26,North,0,0.0,0.0,100,0.00,,---,0.10,VWS V14.00,2013-08-21 14:15:00,
2013-08-21 10:20:00,71.7,71.7,30.26,NNW,338,0.0,0.0,100,0.00,,---,0.10,VWS V14.00,2013-08-21 14:20:00,
2013-08-21 10:25:00,72.1,72.1,30.26,NNW,338,0.0,0.0,100,0.00,,---,0.10,VWS V14.00,2013-08-21 14:25:00,
2013-08-21 10:30:00,72.3,72.3,30.25,NNW,338,0.0,0.0,100,0.00,,---,0.10,VWS V14.00,2013-08-21 14:30:00,
2013-08-21 10:35:00,72.5,72.5,30.26,NNW,338,0.0,0.0,100,0.00,,---,0.10,VWS V14.00,2013-08-21 14:35:00,
2013-08-21 10:40:00,73.0,73.0,30.25,NNW,338,0.0,0.0,100,0.00,,---,0.10,VWS V14.00,2013-08-21 14:40:00,
2013-08-21 10:45:00,73.0,73.0,30.26,NNW,338,0.0,0.0,100,0.00,,---,0.10,VWS V14.00,2013-08-21 14:45:00,
2013-08-21 10:50:00,72.8,72.8,30.26,NNW,338,0.0,0.0,100,0.00,,---,0.10,VWS V14.00,2013-08-21 14:50:00,
2013-08-21 10:55:00,72.6,72.6,30.26,NNW,338,0.0,0.0,100,0.00,,---,0.10,VWS V14.00,2013-08-21 14:55:00,
2013-08-21 11:00:00,72.3,72.3,30.26,NNW,338,0.0,0.0,100,0.02,,---,0.12,VWS V14.00,2013-08-21 15:00:00,
2013-08-21 11:05:00,72.3,72.3,30.26,NNW,338,0.0,0.0,100,0.02,,---,0.12,VWS V14.00,2013-08-21 15:05:00,
2013-08-21 11:10:00,72.3,72.3,30.26,NNW,338,0.0,0.0,100,0.02,,---,0.12,VWS V14.00,2013-08-21 15:10:00,
2013-08-21 11:15:00,72.6,72.6,30.26,NNW,338,0.0,0.0,100,0.02,,---,0.12,VWS V14.00,2013-08-21 15:15:00,
2013-08-21 11:20:00,72.8,72.8,30.27,NNW,338,0.0,0.0,100,0.02,,---,0.12,VWS V14.00,2013-08-21 15:20:00,
2013-08-21 11:25:00,72.8,72.5,30.26,NNW,338,0.0,0.0,99,0.02,,---,0.12,VWS V14.00,2013-08-21 15:25:00,
2013-08-21 11:30:00,73.0,72.7,30.26,NNW,338,0.0,0.0,99,0.02,,---,0.12,VWS V14.00,2013-08-21 15:30:00,
2013-08-21 11:35:00,73.2,72.9,30.26,NNW,338,0.0,0.0,99,0.02,,---,0.12,VWS V14.00,2013-08-21 15:35:00,
2013-08-21 11:40:00,73.5,73.2,30.26,NNW,338,0.0,0.0,99,0.02,,---,0.12,VWS V14.00,2013-08-21 15:40:00,
2013-08-21 11:45:00,73.9,73.6,30.26,NNW,338,0.0,0.0,99,0.02,,---,0.12,VWS V14.00,2013-08-21 15:45:00,
2013-08-21 11:50:00,74.1,73.5,30.26,NNW,338,0.0,0.0,98,0.02,,---,0.12,VWS V14.00,2013-08-21 15:50:00,
2013-08-21 11:55:00,74.1,73.5,30.26,NNW,338,0.0,0.0,98,0.02,,---,0.12,VWS V14.00,2013-08-21 15:55:00,
2013-08-21 12:00:00,74.4,73.8,30.26,NNW,338,0.0,0.0,98,0.02,,---,0.12,VWS V14.00,2013-08-21 16:00:00,
2013-08-21 12:05:00,74.4,73.8,30.26,NNW,338,0.0,0.0,98,0.00,,---,0.12,VWS V14.00,2013-08-21 16:05:00,
2013-08-21 12:10:00,74.3,73.4,30.26,NNW,338,0.0,0.0,97,0.00,,---,0.12,VWS V14.00,2013-08-21 16:10:00,
2013-08-21 12:15:00,74.3,73.4,30.26,NNW,338,0.0,0.0,97,0.00,,---,0.12,VWS V14.00,2013-08-21 16:15:00,
2013-08-21 12:21:00,74.1,73.2,30.26,NNW,338,0.0,0.0,97,0.00,,---,0.12,VWS V14.00,2013-08-21 16:21:00,
2013-08-21 12:26:00,73.9,73.0,30.26,NW,315,0.0,0.0,97,0.02,,---,0.14,VWS V14.00,2013-08-21 16:26:00,
2013-08-21 12:31:00,73.7,72.8,30.26,NW,315,0.0,0.0,97,0.02,,---,0.14,VWS V14.00,2013-08-21 16:31:00,
2013-08-21 12:36:00,73.5,72.6,30.25,NW,315,0.0,0.0,97,0.02,,---,0.14,VWS V14.00,2013-08-21 16:36:00,
2013-08-21 12:41:00,73.4,72.5,30.25,NW,315,0.0,0.0,97,0.02,,---,0.14,VWS V14.00,2013-08-21 16:41:00,
2013-08-21 12:46:00,73.2,72.3,30.25,NW,315,0.0,0.0,97,0.02,,---,0.14,VWS V14.00,2013-08-21 16:46:00,
2013-08-21 12:51:00,73.4,72.8,30.25,NW,315,0.0,0.0,98,0.02,,---,0.14,VWS V14.00,2013-08-21 16:51:00,
2013-08-21 12:56:00,73.2,72.3,30.26,NW,315,0.0,0.0,97,0.02,,---,0.14,VWS V14.00,2013-08-21 16:56:00,
2013-08-21 13:01:00,73.4,72.8,30.25,NW,315,0.0,0.0,98,0.02,,---,0.14,VWS V14.00,2013-08-21 17:01:00,
2013-08-21 13:06:00,73.2,72.3,30.25,NW,315,0.0,0.0,97,0.02,,---,0.14,VWS V14.00,2013-08-21 17:06:00,
2013-08-21 13:11:00,73.2,72.3,30.25,NW,315,0.0,0.0,97,0.02,,---,0.14,VWS V14.00,2013-08-21 17:11:00,
2013-08-21 13:16:00,73.0,72.1,30.25,NW,315,0.0,0.0,97,0.02,,---,0.14,VWS V14.00,2013-08-21 17:16:00,
2013-08-21 13:21:00,73.2,72.3,30.25,NW,315,0.0,0.0,97,0.02,,---,0.14,VWS V14.00,2013-08-21 17:21:00,
2013-08-21 13:26:00,73.2,72.3,30.25,NW,315,0.0,0.0,97,0.02,,---,0.14,VWS V14.00,2013-08-21 17:26:00,
2013-08-21 13:31:00,73.2,72.3,30.25,NW,315,0.0,0.0,97,0.02,,---,0.14,VWS V14.00,2013-08-21 17:31:00,
2013-08-21 13:36:00,73.7,72.8,30.24,NW,315,0.0,0.0,97,0.00,,---,0.14,VWS V14.00,2013-08-21 17:36:00,
2013-08-21 13:41:00,73.9,73.0,30.24,NW,315,0.0,0.0,97,0.00,,---,0.14,VWS V14.00,2013-08-21 17:41:00,
2013-08-21 13:46:00,73.9,73.0,30.24,NW,315,0.0,0.0,97,0.00,,---,0.14,VWS V14.00,2013-08-21 17:46:00,
2013-08-21 13:51:00,74.1,73.2,30.24,NW,315,0.0,0.0,97,0.00,,---,0.14,VWS V14.00,2013-08-21 17:51:00,
2013-08-21 13:56:00,74.3,73.4,30.24,NW,315,0.0,0.0,97,0.00,,---,0.14,VWS V14.00,2013-08-21 17:56:00,
2013-08-21 14:01:00,74.6,73.4,30.23,NW,315,0.0,0.0,96,0.00,,---,0.14,VWS V14.00,2013-08-21 18:01:00,
2013-08-21 14:06:00,75.0,73.8,30.23,NW,315,0.0,0.0,96,0.00,,---,0.14,VWS V14.00,2013-08-21 18:06:00,
2013-08-21 14:11:00,75.2,74.0,30.23,NW,315,0.0,0.0,96,0.00,,---,0.14,VWS V14.00,2013-08-21 18:11:00,
2013-08-21 14:16:00,75.5,74.0,30.22,SSE,158,0.0,0.0,95,0.00,,---,0.14,VWS V14.00,2013-08-21 18:16:00,
2013-08-21 14:21:00,75.9,74.4,30.22,SSE,158,0.0,0.0,95,0.00,,---,0.14,VWS V14.00,2013-08-21 18:21:00,
2013-08-21 14:26:00,76.1,74.2,30.21,SSE,158,0.0,0.0,94,0.00,,---,0.14,VWS V14.00,2013-08-21 18:26:00,
2013-08-21 14:31:00,76.2,74.3,30.22,SSE,158,0.0,0.0,94,0.00,,---,0.14,VWS V14.00,2013-08-21 18:31:00,
2013-08-21 14:36:00,76.4,74.2,30.21,SSE,158,0.0,0.0,93,0.00,,---,0.14,VWS V14.00,2013-08-21 18:36:00,
2013-08-21 14:41:00,76.6,74.4,30.20,South,180,0.0,0.0,93,0.00,,---,0.14,VWS V14.00,2013-08-21 18:41:00,
2013-08-21 14:46:00,76.8,74.6,30.20,South,180,0.0,0.0,93,0.00,,---,0.14,VWS V14.00,2013-08-21 18:46:00,
2013-08-21 14:51:00,76.8,74.3,30.20,South,180,0.0,0.0,92,0.00,,---,0.14,VWS V14.00,2013-08-21 18:51:00,
2013-08-21 14:56:00,76.8,74.3,30.20,South,180,0.0,0.0,92,0.00,,---,0.14,VWS V14.00,2013-08-21 18:56:00,
2013-08-21 15:01:00,76.8,74.3,30.20,SSW,202,0.0,0.0,92,0.00,,---,0.14,VWS V14.00,2013-08-21 19:01:00,
2013-08-21 15:06:00,76.8,74.3,30.20,SW,225,0.0,0.0,92,0.00,,---,0.14,VWS V14.00,2013-08-21 19:06:00,
2013-08-21 15:11:00,76.8,74.3,30.21,SW,225,0.0,0.0,92,0.00,,---,0.14,VWS V14.00,2013-08-21 19:11:00,
2013-08-21 15:16:00,77.0,74.5,30.21,West,270,0.0,0.0,92,0.00,,---,0.14,VWS V14.00,2013-08-21 19:16:00,
2013-08-21 15:21:00,77.3,74.5,30.21,SSE,158,0.0,0.0,91,0.00,,---,0.14,VWS V14.00,2013-08-21 19:21:00,
2013-08-21 15:26:00,77.5,74.7,30.21,SSE,158,0.0,0.0,91,0.00,,---,0.14,VWS V14.00,2013-08-21 19:26:00,
2013-08-21 15:32:00,77.3,74.1,30.21,SSE,158,0.0,0.0,90,0.00,,---,0.14,VWS V14.00,2013-08-21 19:32:00,
2013-08-21 15:37:00,77.1,73.9,30.21,SSE,158,0.0,0.0,90,0.00,,---,0.14,VWS V14.00,2013-08-21 19:37:00,
2013-08-21 15:42:00,76.8,73.7,30.20,SSE,158,0.0,0.0,90,0.00,,---,0.14,VWS V14.00,2013-08-21 19:42:00,
2013-08-21 15:47:00,76.8,73.7,30.21,SSE,158,0.0,0.0,90,0.00,,---,0.14,VWS V14.00,2013-08-21 19:47:00,
2013-08-21 15:52:00,76.6,73.4,30.21,SSE,158,0.0,0.0,90,0.00,,---,0.14,VWS V14.00,2013-08-21 19:52:00,
2013-08-21 15:57:00,76.6,73.4,30.21,SSE,158,0.0,0.0,90,0.00,,---,0.14,VWS V14.00,2013-08-21 19:57:00,
2013-08-21 16:02:00,76.2,73.1,30.21,SSE,158,0.0,0.0,90,0.00,,---,0.14,VWS V14.00,2013-08-21 20:02:00,
2013-08-21 16:07:00,76.2,73.4,30.21,SSE,158,0.0,0.0,91,0.00,,---,0.14,VWS V14.00,2013-08-21 20:07:00,
2013-08-21 16:12:00,76.2,73.4,30.21,SSE,158,0.0,0.0,91,0.00,,---,0.14,VWS V14.00,2013-08-21 20:12:00,
2013-08-21 16:17:00,76.4,73.6,30.21,SSE,158,0.0,0.0,91,0.00,,---,0.14,VWS V14.00,2013-08-21 20:17:00,
2013-08-21 16:22:00,76.6,73.8,30.21,SSE,158,0.0,0.0,91,0.00,,---,0.14,VWS V14.00,2013-08-21 20:22:00,
2013-08-21 16:27:00,76.8,74.0,30.21,SSE,158,0.0,0.0,91,0.00,,---,0.14,VWS V14.00,2013-08-21 20:27:00,
2013-08-21 16:32:00,77.1,73.9,30.21,SSE,158,0.0,0.0,90,0.00,,---,0.14,VWS V14.00,2013-08-21 20:32:00,
2013-08-21 16:37:00,77.5,74.3,30.21,South,180,0.0,0.0,90,0.00,,---,0.14,VWS V14.00,2013-08-21 20:37:00,
2013-08-21 16:42:00,77.7,74.5,30.20,SSW,202,0.0,0.0,90,0.00,,---,0.14,VWS V14.00,2013-08-21 20:42:00,
2013-08-21 16:47:00,77.9,74.4,30.21,SSW,202,0.0,0.0,89,0.00,,---,0.14,VWS V14.00,2013-08-21 20:47:00,
2013-08-21 16:52:00,77.9,74.4,30.20,SSW,202,0.0,0.0,89,0.00,,---,0.14,VWS V14.00,2013-08-21 20:52:00,
2013-08-21 16:57:00,78.0,74.5,30.19,SSW,202,0.0,0.0,89,0.00,,---,0.14,VWS V14.00,2013-08-21 20:57:00,
2013-08-21 17:02:00,78.0,74.5,30.19,SSW,202,0.0,0.0,89,0.00,,---,0.14,VWS V14.00,2013-08-21 21:02:00,
2013-08-21 17:07:00,77.7,74.2,30.19,SSW,202,0.0,0.0,89,0.00,,---,0.14,VWS V14.00,2013-08-21 21:07:00,
2013-08-21 17:12:00,77.5,74.0,30.19,SSW,202,0.0,0.0,89,0.00,,---,0.14,VWS V14.00,2013-08-21 21:12:00,
2013-08-21 17:17:00,77.1,73.6,30.19,SSW,202,0.0,0.0,89,0.00,,---,0.14,VWS V14.00,2013-08-21 21:17:00,
2013-08-21 17:22:00,76.6,73.4,30.19,SSW,202,0.0,0.0,90,0.00,,---,0.14,VWS V14.00,2013-08-21 21:22:00,
2013-08-21 17:27:00,76.2,72.7,30.18,SSW,202,0.0,0.0,89,0.00,,---,0.14,VWS V14.00,2013-08-21 21:27:00,
2013-08-21 17:32:00,75.9,72.8,30.19,SSW,202,0.0,0.0,90,0.00,,---,0.14,VWS V14.00,2013-08-21 21:32:00,
2013-08-21 17:37:00,75.7,72.9,30.18,SSW,202,0.0,0.0,91,0.00,,---,0.14,VWS V14.00,2013-08-21 21:37:00,
2013-08-21 17:42:00,75.5,73.0,30.18,SSW,202,0.0,0.0,92,0.00,,---,0.14,VWS V14.00,2013-08-21 21:42:00,
2013-08-21 17:47:00,75.7,73.2,30.18,SSW,202,0.0,0.0,92,0.00,,---,0.14,VWS V14.00,2013-08-21 21:47:00,
2013-08-21 17:52:00,75.9,73.4,30.18,SSW,202,0.0,0.0,92,0.00,,---,0.14,VWS V14.00,2013-08-21 21:52:00,
2013-08-21 17:57:00,75.9,73.4,30.17,SSW,202,0.0,0.0,92,0.00,,---,0.14,VWS V14.00,2013-08-21 21:57:00,
2013-08-21 18:02:00,76.2,73.7,30.17,South,180,0.0,0.0,92,0.00,,---,0.14,VWS V14.00,2013-08-21 22:02:00,
2013-08-21 18:07:00,76.2,73.7,30.17,South,180,0.0,0.0,92,0.00,,---,0.14,VWS V14.00,2013-08-21 22:07:00,
2013-08-21 18:12:00,76.1,73.6,30.16,SW,225,0.0,0.0,92,0.00,,---,0.14,VWS V14.00,2013-08-21 22:12:00,
2013-08-21 18:17:00,76.1,73.3,30.16,South,180,0.0,0.0,91,0.00,,---,0.14,VWS V14.00,2013-08-21 22:17:00,
2013-08-21 18:22:00,75.9,73.1,30.16,South,180,0.0,0.0,91,0.00,,---,0.14,VWS V14.00,2013-08-21 22:22:00,
2013-08-21 18:27:00,75.7,72.9,30.16,South,180,0.0,0.0,91,0.00,,---,0.14,VWS V14.00,2013-08-21 22:27:00,
2013-08-21 18:32:00,75.5,72.7,30.16,South,180,0.0,0.0,91,0.00,,---,0.14,VWS V14.00,2013-08-21 22:32:00,
2013-08-21 18:37:00,75.0,72.5,30.16,South,180,0.0,0.0,92,0.00,,---,0.14,VWS V14.00,2013-08-21 22:37:00,
2013-08-21 18:42:00,74.4,72.2,30.16,South,180,0.0,0.0,93,0.00,,---,0.14,VWS V14.00,2013-08-21 22:42:00,
2013-08-21 18:47:00,74.3,72.2,30.17,South,180,0.0,0.0,93,0.00,,---,0.14,VWS V14.00,2013-08-21 22:47:00,
2013-08-21 18:52:00,74.1,71.9,30.17,South,180,0.0,0.0,93,0.00,,---,0.14,VWS V14.00,2013-08-21 22:52:00,
2013-08-21 18:57:00,73.7,71.6,30.17,South,180,0.0,0.0,93,0.00,,---,0.14,VWS V14.00,2013-08-21 22:57:00,
2013-08-21 19:02:00,73.2,71.4,30.17,South,180,0.0,0.0,94,0.00,,---,0.14,VWS V14.00,2013-08-21 23:02:00,
2013-08-21 19:07:00,73.0,71.5,30.17,South,180,0.0,0.0,95,0.00,,---,0.14,VWS V14.00,2013-08-21 23:07:00,
2013-08-21 19:12:00,72.5,71.0,30.17,South,180,0.0,0.0,95,0.00,,---,0.14,VWS V14.00,2013-08-21 23:12:00,
2013-08-21 19:17:00,72.3,70.8,30.17,South,180,0.0,0.0,95,0.00,,---,0.14,VWS V14.00,2013-08-21 23:17:00,
2013-08-21 19:22:00,72.1,70.9,30.17,South,180,0.0,0.0,96,0.00,,---,0.14,VWS V14.00,2013-08-21 23:22:00,
2013-08-21 19:27:00,71.7,70.5,30.18,South,180,0.0,0.0,96,0.00,,---,0.14,VWS V14.00,2013-08-21 23:27:00,
2013-08-21 19:32:00,71.4,70.2,30.18,South,180,0.0,0.0,96,0.00,,---,0.14,VWS V14.00,2013-08-21 23:32:00,
2013-08-21 19:37:00,71.4,70.2,30.18,South,180,0.0,0.0,96,0.00,,---,0.14,VWS V14.00,2013-08-21 23:37:00,
2013-08-21 19:42:00,71.2,70.3,30.18,South,180,0.0,0.0,97,0.00,,---,0.14,VWS V14.00,2013-08-21 23:42:00,
2013-08-21 19:47:00,71.2,70.3,30.18,South,180,0.0,0.0,97,0.00,,---,0.14,VWS V14.00,2013-08-21 23:47:00,
2013-08-21 19:52:00,70.8,69.9,30.18,South,180,0.0,0.0,97,0.00,,---,0.14,VWS V14.00,2013-08-21 23:52:00,
2013-08-21 19:57:00,70.5,69.9,30.18,South,180,0.0,0.0,98,0.00,,---,0.14,VWS V14.00,2013-08-21 23:57:00,
2013-08-21 20:02:00,70.5,69.9,30.17,South,180,0.0,0.0,98,0.00,,---,0.14,VWS V14.00,2013-08-22 00:02:00,
2013-08-21 20:07:00,70.3,69.7,30.17,South,180,0.0,0.0,98,0.00,,---,0.14,VWS V14.00,2013-08-22 00:07:00,
2013-08-21 20:12:00,69.9,69.3,30.16,South,180,0.0,0.0,98,0.00,,---,0.14,VWS V14.00,2013-08-22 00:12:00,
2013-08-21 20:17:00,69.8,69.2,30.16,South,180,0.0,0.0,98,0.00,,---,0.14,VWS V14.00,2013-08-22 00:17:00,
2013-08-21 20:22:00,69.6,69.0,30.15,South,180,0.0,0.0,98,0.00,,---,0.14,VWS V14.00,2013-08-22 00:22:00,
2013-08-21 20:27:00,69.4,69.1,30.16,South,180,0.0,0.0,99,0.00,,---,0.14,VWS V14.00,2013-08-22 00:27:00,
2013-08-21 20:32:00,69.0,68.7,30.16,South,180,0.0,0.0,99,0.00,,---,0.14,VWS V14.00,2013-08-22 00:32:00,
2013-08-21 20:37:00,68.9,68.6,30.16,South,180,0.0,0.0,99,0.00,,---,0.14,VWS V14.00,2013-08-22 00:37:00,
2013-08-21 20:42:00,68.7,68.4,30.17,South,180,0.0,0.0,99,0.00,,---,0.14,VWS V14.00,2013-08-22 00:42:00,
2013-08-21 20:47:00,68.5,68.2,30.17,South,180,0.0,0.0,99,0.00,,---,0.14,VWS V14.00,2013-08-22 00:47:00,
2013-08-21 20:52:00,68.5,68.2,30.18,South,180,0.0,0.0,99,0.00,,---,0.14,VWS V14.00,2013-08-22 00:52:00,
2013-08-21 20:57:00,68.1,67.8,30.18,South,180,0.0,0.0,99,0.00,,---,0.14,VWS V14.00,2013-08-22 00:57:00,
2013-08-21 21:02:00,68.1,67.8,30.18,South,180,0.0,0.0,99,0.00,,---,0.14,VWS V14.00,2013-08-22 01:02:00,
2013-08-21 21:07:00,67.8,67.8,30.17,South,180,0.0,0.0,100,0.00,,---,0.14,VWS V14.00,2013-08-22 01:07:00,
2013-08-21 21:12:00,67.8,67.8,30.18,South,180,0.0,0.0,100,0.00,,---,0.14,VWS V14.00,2013-08-22 01:12:00,
2013-08-21 21:17:00,67.6,67.6,30.18,South,180,0.0,0.0,100,0.00,,---,0.14,VWS V14.00,2013-08-22 01:17:00,
2013-08-21 21:22:00,67.6,67.6,30.18,South,180,0.0,0.0,100,0.00,,---,0.14,VWS V14.00,2013-08-22 01:22:00,
2013-08-21 21:27:00,67.2,67.2,30.18,South,180,0.0,0.0,100,0.00,,---,0.14,VWS V14.00,2013-08-22 01:27:00,
2013-08-21 21:32:00,67.2,67.2,30.19,South,180,0.0,0.0,100,0.00,,---,0.14,VWS V14.00,2013-08-22 01:32:00,
2013-08-21 21:37:00,67.1,67.1,30.20,South,180,0.0,0.0,100,0.00,,---,0.14,VWS V14.00,2013-08-22 01:37:00,
2013-08-21 21:42:00,66.9,66.9,30.20,South,180,0.0,0.0,100,0.00,,---,0.14,VWS V14.00,2013-08-22 01:42:00,
2013-08-21 21:47:00,66.9,66.9,30.20,South,180,0.0,0.0,100,0.00,,---,0.14,VWS V14.00,2013-08-22 01:47:00,
2013-08-21 21:52:00,66.7,66.7,30.20,South,180,0.0,0.0,100,0.00,,---,0.14,VWS V14.00,2013-08-22 01:52:00,
2013-08-21 21:57:00,66.7,66.7,30.20,South,180,0.0,0.0,100,0.00,,---,0.14,VWS V14.00,2013-08-22 01:57:00,
2013-08-21 22:02:00,66.5,66.5,30.20,South,180,0.0,0.0,100,0.00,,---,0.14,VWS V14.00,2013-08-22 02:02:00,
2013-08-21 22:07:00,66.5,66.5,30.20,South,180,0.0,0.0,100,0.00,,---,0.14,VWS V14.00,2013-08-22 02:07:00,
2013-08-21 22:12:00,66.3,66.3,30.20,South,180,0.0,0.0,100,0.00,,---,0.14,VWS V14.00,2013-08-22 02:12:00,
2013-08-21 22:17:00,66.3,66.3,30.20,South,180,0.0,0.0,100,0.00,,---,0.14,VWS V14.00,2013-08-22 02:17:00,
2013-08-21 22:22:00,66.3,66.3,30.20,South,180,0.0,0.0,100,0.00,,---,0.14,VWS V14.00,2013-08-22 02:22:00,
2013-08-21 22:27:00,66.2,66.2,30.20,South,180,0.0,0.0,100,0.00,,---,0.14,VWS V14.00,2013-08-22 02:27:00,
2013-08-21 22:32:00,66.2,66.2,30.20,South,180,0.0,0.0,100,0.00,,---,0.14,VWS V14.00,2013-08-22 02:32:00,
2013-08-21 22:37:00,66.0,66.0,30.20,South,180,0.0,0.0,100,0.00,,---,0.14,VWS V14.00,2013-08-22 02:37:00,
2013-08-21 22:42:00,66.0,66.0,30.20,South,180,0.0,0.0,100,0.00,,---,0.14,VWS V14.00,2013-08-22 02:42:00,
2013-08-21 22:47:00,66.0,66.0,30.20,South,180,0.0,0.0,100,0.00,,---,0.14,VWS V14.00,2013-08-22 02:47:00,
2013-08-21 22:53:00,65.8,65.8,30.20,South,180,0.0,0.0,100,0.00,,---,0.14,VWS V14.00,2013-08-22 02:53:00,
2013-08-21 22:58:00,65.8,65.8,30.20,South,180,0.0,0.0,100,0.00,,---,0.14,VWS V14.00,2013-08-22 02:58:00,
2013-08-21 23:03:00,65.6,65.6,30.20,South,180,0.0,0.0,100,0.00,,---,0.14,VWS V14.00,2013-08-22 03:03:00,
2013-08-21 23:08:00,65.6,65.6,30.20,South,180,0.0,0.0,100,0.00,,---,0.14,VWS V14.00,2013-08-22 03:08:00,
2013-08-21 23:13:00,65.4,65.4,30.20,South,180,0.0,0.0,100,0.00,,---,0.14,VWS V14.00,2013-08-22 03:13:00,
2013-08-21 23:18:00,65.4,65.4,30.20,South,180,0.0,0.0,100,0.00,,---,0.14,VWS V14.00,2013-08-22 03:18:00,
2013-08-21 23:23:00,65.4,65.4,30.20,South,180,0.0,0.0,100,0.00,,---,0.14,VWS V14.00,2013-08-22 03:23:00,
2013-08-21 23:28:00,65.3,65.3,30.20,South,180,0.0,0.0,100,0.00,,---,0.14,VWS V14.00,2013-08-22 03:28:00,
2013-08-21 23:33:00,65.3,65.3,30.20,South,180,0.0,0.0,100,0.00,,---,0.14,VWS V14.00,2013-08-22 03:33:00,
2013-08-21 23:38:00,65.1,65.1,30.19,South,180,0.0,0.0,100,0.00,,---,0.14,VWS V14.00,2013-08-22 03:38:00,
2013-08-21 23:43:00,65.1,65.1,30.19,South,180,0.0,0.0,100,0.00,,---,0.14,VWS V14.00,2013-08-22 03:43:00,
2013-08-21 23:48:00,64.9,64.9,30.19,South,180,0.0,0.0,100,0.00,,---,0.14,VWS V14.00,2013-08-22 03:48:00,
2013-08-21 23:53:00,64.9,64.9,30.19,South,180,0.0,0.0,100,0.00,,---,0.14,VWS V14.00,2013-08-22 03:53:00,
2013-08-21 23:58:00,64.7,64.7,30.19,South,180,0.0,0.0,100,0.00,,---,0.14,VWS V14.00,2013-08-22 03:58:00,